sensor_id;sensor_type;location;lat;lon;timestamp;P1;durP1;ratioP1;P2;durP2;ratioP2
52858;SDS011;38721;53.098;6.596;2023-03-21T00:01:09;24.63;;;14.13;;
52858;SDS011;38721;53.098;6.596;2023-03-21T00:03:37;25.42;;;14.25;;
52858;SDS011;38721;53.098;6.596;2023-03-21T00:06:04;28.38;;;14.90;;
52858;SDS011;38721;53.098;6.596;2023-03-21T00:08:31;25.73;;;14.73;;
52858;SDS011;38721;53.098;6.596;2023-03-21T00:10:57;24.73;;;15.00;;
52858;SDS011;38721;53.098;6.596;2023-03-21T00:13:25;24.58;;;14.60;;
52858;SDS011;38721;53.098;6.596;2023-03-21T00:15:52;24.67;;;13.68;;
52858;SDS011;38721;53.098;6.596;2023-03-21T00:18:24;23.40;;;13.55;;
52858;SDS011;38721;53.098;6.596;2023-03-21T00:20:58;21.88;;;13.05;;
52858;SDS011;38721;53.098;6.596;2023-03-21T00:23:25;24.25;;;12.82;;
52858;SDS011;38721;53.098;6.596;2023-03-21T00:25:52;23.33;;;12.63;;
52858;SDS011;38721;53.098;6.596;2023-03-21T00:28:18;28.15;;;14.40;;
52858;SDS011;38721;53.098;6.596;2023-03-21T00:30:44;31.17;;;14.45;;
52858;SDS011;38721;53.098;6.596;2023-03-21T00:33:10;29.48;;;13.77;;
52858;SDS011;38721;53.098;6.596;2023-03-21T00:35:38;38.42;;;15.85;;
52858;SDS011;38721;53.098;6.596;2023-03-21T00:38:07;50.63;;;18.08;;
52858;SDS011;38721;53.098;6.596;2023-03-21T00:40:36;54.40;;;19.02;;
52858;SDS011;38721;53.098;6.596;2023-03-21T00:43:01;64.70;;;19.98;;
52858;SDS011;38721;53.098;6.596;2023-03-21T00:45:27;67.15;;;20.75;;
52858;SDS011;38721;53.098;6.596;2023-03-21T00:48:17;73.07;;;21.90;;
52858;SDS011;38721;53.098;6.596;2023-03-21T00:50:44;87.72;;;23.63;;
52858;SDS011;38721;53.098;6.596;2023-03-21T00:53:11;76.75;;;23.25;;
52858;SDS011;38721;53.098;6.596;2023-03-21T00:55:37;82.75;;;24.42;;
52858;SDS011;38721;53.098;6.596;2023-03-21T00:58:04;79.28;;;24.88;;
52858;SDS011;38721;53.098;6.596;2023-03-21T01:00:33;84.22;;;24.60;;
52858;SDS011;38721;53.098;6.596;2023-03-21T01:03:03;83.82;;;24.65;;
52858;SDS011;38721;53.098;6.596;2023-03-21T01:05:32;74.10;;;24.85;;
52858;SDS011;38721;53.098;6.596;2023-03-21T01:08:23;76.63;;;25.23;;
52858;SDS011;38721;53.098;6.596;2023-03-21T01:10:50;80.30;;;23.55;;
52858;SDS011;38721;53.098;6.596;2023-03-21T01:13:17;86.30;;;25.00;;
52858;SDS011;38721;53.098;6.596;2023-03-21T01:15:46;82.10;;;26.15;;
52858;SDS011;38721;53.098;6.596;2023-03-21T01:18:13;73.18;;;24.30;;
52858;SDS011;38721;53.098;6.596;2023-03-21T01:20:41;73.63;;;24.75;;
52858;SDS011;38721;53.098;6.596;2023-03-21T01:23:08;69.75;;;24.75;;
52858;SDS011;38721;53.098;6.596;2023-03-21T01:25:34;62.65;;;22.90;;
52858;SDS011;38721;53.098;6.596;2023-03-21T01:28:00;66.40;;;24.10;;
52858;SDS011;38721;53.098;6.596;2023-03-21T01:30:26;68.00;;;23.90;;
52858;SDS011;38721;53.098;6.596;2023-03-21T01:32:52;58.75;;;23.23;;
52858;SDS011;38721;53.098;6.596;2023-03-21T01:35:17;52.85;;;22.17;;
52858;SDS011;38721;53.098;6.596;2023-03-21T01:37:43;64.45;;;22.88;;
52858;SDS011;38721;53.098;6.596;2023-03-21T01:40:15;57.88;;;23.50;;
52858;SDS011;38721;53.098;6.596;2023-03-21T01:42:51;55.60;;;23.63;;
52858;SDS011;38721;53.098;6.596;2023-03-21T01:48:20;54.00;;;23.55;;
52858;SDS011;38721;53.098;6.596;2023-03-21T01:50:47;52.45;;;22.73;;
52858;SDS011;38721;53.098;6.596;2023-03-21T01:53:14;55.85;;;23.88;;
52858;SDS011;38721;53.098;6.596;2023-03-21T01:55:41;47.25;;;23.25;;
52858;SDS011;38721;53.098;6.596;2023-03-21T01:58:07;50.72;;;22.73;;
52858;SDS011;38721;53.098;6.596;2023-03-21T02:00:42;52.90;;;23.73;;
52858;SDS011;38721;53.098;6.596;2023-03-21T02:03:09;50.92;;;22.75;;
52858;SDS011;38721;53.098;6.596;2023-03-21T02:08:21;52.65;;;24.17;;
52858;SDS011;38721;53.098;6.596;2023-03-21T02:10:47;47.17;;;23.35;;
52858;SDS011;38721;53.098;6.596;2023-03-21T02:13:14;50.55;;;24.17;;
52858;SDS011;38721;53.098;6.596;2023-03-21T02:15:41;54.17;;;24.08;;
52858;SDS011;38721;53.098;6.596;2023-03-21T02:18:23;49.15;;;24.40;;
52858;SDS011;38721;53.098;6.596;2023-03-21T02:21:30;51.83;;;24.02;;
52858;SDS011;38721;53.098;6.596;2023-03-21T02:27:00;45.75;;;23.73;;
52858;SDS011;38721;53.098;6.596;2023-03-21T02:29:41;45.25;;;23.73;;
52858;SDS011;38721;53.098;6.596;2023-03-21T02:32:39;46.67;;;24.77;;
52858;SDS011;38721;53.098;6.596;2023-03-21T02:38:17;49.23;;;24.13;;
52858;SDS011;38721;53.098;6.596;2023-03-21T02:41:16;43.28;;;22.92;;
52858;SDS011;38721;53.098;6.596;2023-03-21T02:47:00;44.25;;;22.05;;
52858;SDS011;38721;53.098;6.596;2023-03-21T02:52:10;39.15;;;21.05;;
52858;SDS011;38721;53.098;6.596;2023-03-21T02:54:45;37.28;;;20.63;;
52858;SDS011;38721;53.098;6.596;2023-03-21T02:57:13;36.45;;;19.85;;
52858;SDS011;38721;53.098;6.596;2023-03-21T02:59:40;35.63;;;20.25;;
52858;SDS011;38721;53.098;6.596;2023-03-21T03:02:07;42.05;;;21.52;;
52858;SDS011;38721;53.098;6.596;2023-03-21T03:04:33;39.25;;;21.25;;
52858;SDS011;38721;53.098;6.596;2023-03-21T03:10:02;42.67;;;20.42;;
52858;SDS011;38721;53.098;6.596;2023-03-21T03:12:39;38.03;;;20.20;;
52858;SDS011;38721;53.098;6.596;2023-03-21T03:15:28;38.10;;;19.33;;
52858;SDS011;38721;53.098;6.596;2023-03-21T03:20:52;36.30;;;17.75;;
52858;SDS011;38721;53.098;6.596;2023-03-21T03:23:29;35.78;;;18.42;;
52858;SDS011;38721;53.098;6.596;2023-03-21T03:26:21;34.67;;;18.10;;
52858;SDS011;38721;53.098;6.596;2023-03-21T03:28:52;35.95;;;17.48;;
52858;SDS011;38721;53.098;6.596;2023-03-21T03:31:23;32.58;;;17.17;;
52858;SDS011;38721;53.098;6.596;2023-03-21T03:33:54;34.28;;;17.10;;
52858;SDS011;38721;53.098;6.596;2023-03-21T03:36:26;35.10;;;17.90;;
52858;SDS011;38721;53.098;6.596;2023-03-21T03:38:58;32.00;;;16.90;;
52858;SDS011;38721;53.098;6.596;2023-03-21T03:41:28;31.88;;;16.65;;
52858;SDS011;38721;53.098;6.596;2023-03-21T03:43:56;30.25;;;16.70;;
52858;SDS011;38721;53.098;6.596;2023-03-21T03:47:07;27.92;;;15.80;;
52858;SDS011;38721;53.098;6.596;2023-03-21T03:49:22;27.63;;;15.50;;
52858;SDS011;38721;53.098;6.596;2023-03-21T03:54:29;29.88;;;16.17;;
52858;SDS011;38721;53.098;6.596;2023-03-21T03:56:59;26.75;;;14.65;;
52858;SDS011;38721;53.098;6.596;2023-03-21T03:59:25;28.50;;;15.15;;
52858;SDS011;38721;53.098;6.596;2023-03-21T04:01:51;28.60;;;14.82;;
52858;SDS011;38721;53.098;6.596;2023-03-21T04:04:17;25.90;;;14.50;;
52858;SDS011;38721;53.098;6.596;2023-03-21T04:06:45;26.45;;;14.85;;
52858;SDS011;38721;53.098;6.596;2023-03-21T04:09:16;25.38;;;14.57;;
52858;SDS011;38721;53.098;6.596;2023-03-21T04:11:42;27.88;;;14.85;;
52858;SDS011;38721;53.098;6.596;2023-03-21T04:14:08;29.58;;;15.40;;
52858;SDS011;38721;53.098;6.596;2023-03-21T04:16:34;28.63;;;15.18;;
52858;SDS011;38721;53.098;6.596;2023-03-21T04:19:00;28.20;;;15.43;;
52858;SDS011;38721;53.098;6.596;2023-03-21T04:21:26;26.13;;;14.15;;
52858;SDS011;38721;53.098;6.596;2023-03-21T04:23:53;25.50;;;14.68;;
52858;SDS011;38721;53.098;6.596;2023-03-21T04:26:19;28.23;;;14.95;;
52858;SDS011;38721;53.098;6.596;2023-03-21T04:28:46;28.85;;;15.32;;
52858;SDS011;38721;53.098;6.596;2023-03-21T04:31:13;29.02;;;15.13;;
52858;SDS011;38721;53.098;6.596;2023-03-21T04:33:39;30.73;;;16.35;;
52858;SDS011;38721;53.098;6.596;2023-03-21T04:36:05;27.98;;;14.45;;
52858;SDS011;38721;53.098;6.596;2023-03-21T04:38:33;33.80;;;16.15;;
52858;SDS011;38721;53.098;6.596;2023-03-21T04:41:00;28.27;;;15.48;;
52858;SDS011;38721;53.098;6.596;2023-03-21T04:43:27;27.65;;;14.57;;
52858;SDS011;38721;53.098;6.596;2023-03-21T04:45:53;27.52;;;15.18;;
52858;SDS011;38721;53.098;6.596;2023-03-21T04:48:22;31.35;;;15.20;;
52858;SDS011;38721;53.098;6.596;2023-03-21T04:50:48;31.63;;;15.25;;
52858;SDS011;38721;53.098;6.596;2023-03-21T04:53:15;29.80;;;15.15;;
52858;SDS011;38721;53.098;6.596;2023-03-21T04:55:41;31.65;;;15.68;;
52858;SDS011;38721;53.098;6.596;2023-03-21T04:58:07;30.58;;;15.52;;
52858;SDS011;38721;53.098;6.596;2023-03-21T05:00:33;32.53;;;15.98;;
52858;SDS011;38721;53.098;6.596;2023-03-21T05:03:05;30.85;;;15.35;;
52858;SDS011;38721;53.098;6.596;2023-03-21T05:05:34;31.92;;;15.57;;
52858;SDS011;38721;53.098;6.596;2023-03-21T05:08:00;28.60;;;15.15;;
52858;SDS011;38721;53.098;6.596;2023-03-21T05:10:29;32.10;;;15.13;;
52858;SDS011;38721;53.098;6.596;2023-03-21T05:12:55;27.42;;;14.30;;
52858;SDS011;38721;53.098;6.596;2023-03-21T05:15:20;28.75;;;15.18;;
52858;SDS011;38721;53.098;6.596;2023-03-21T05:17:46;33.20;;;15.63;;
52858;SDS011;38721;53.098;6.596;2023-03-21T05:20:12;27.33;;;14.10;;
52858;SDS011;38721;53.098;6.596;2023-03-21T05:22:40;30.10;;;15.48;;
52858;SDS011;38721;53.098;6.596;2023-03-21T05:25:09;29.30;;;14.45;;
52858;SDS011;38721;53.098;6.596;2023-03-21T05:27:35;29.02;;;14.77;;
52858;SDS011;38721;53.098;6.596;2023-03-21T05:30:09;30.83;;;14.35;;
52858;SDS011;38721;53.098;6.596;2023-03-21T05:32:39;33.80;;;14.55;;
52858;SDS011;38721;53.098;6.596;2023-03-21T05:35:05;27.58;;;14.32;;
52858;SDS011;38721;53.098;6.596;2023-03-21T05:37:31;27.92;;;14.25;;
52858;SDS011;38721;53.098;6.596;2023-03-21T05:39:56;32.92;;;15.00;;
52858;SDS011;38721;53.098;6.596;2023-03-21T05:42:22;27.15;;;14.27;;
52858;SDS011;38721;53.098;6.596;2023-03-21T05:44:49;32.63;;;14.38;;
52858;SDS011;38721;53.098;6.596;2023-03-21T05:47:15;36.42;;;16.48;;
52858;SDS011;38721;53.098;6.596;2023-03-21T05:49:42;33.08;;;16.50;;
52858;SDS011;38721;53.098;6.596;2023-03-21T05:52:08;31.63;;;16.30;;
52858;SDS011;38721;53.098;6.596;2023-03-21T05:54:35;31.55;;;16.92;;
52858;SDS011;38721;53.098;6.596;2023-03-21T05:57:02;33.58;;;17.70;;
52858;SDS011;38721;53.098;6.596;2023-03-21T05:59:28;33.72;;;17.90;;
52858;SDS011;38721;53.098;6.596;2023-03-21T06:01:57;33.53;;;18.55;;
52858;SDS011;38721;53.098;6.596;2023-03-21T06:04:22;33.05;;;17.70;;
52858;SDS011;38721;53.098;6.596;2023-03-21T06:06:48;33.17;;;18.17;;
52858;SDS011;38721;53.098;6.596;2023-03-21T06:09:15;31.88;;;18.10;;
52858;SDS011;38721;53.098;6.596;2023-03-21T06:11:43;40.15;;;19.40;;
52858;SDS011;38721;53.098;6.596;2023-03-21T06:14:14;32.28;;;18.67;;
52858;SDS011;38721;53.098;6.596;2023-03-21T06:16:41;35.50;;;18.42;;
52858;SDS011;38721;53.098;6.596;2023-03-21T06:19:06;34.85;;;18.63;;
52858;SDS011;38721;53.098;6.596;2023-03-21T06:21:32;33.35;;;18.42;;
52858;SDS011;38721;53.098;6.596;2023-03-21T06:23:58;37.55;;;18.33;;
52858;SDS011;38721;53.098;6.596;2023-03-21T06:26:23;29.88;;;17.77;;
52858;SDS011;38721;53.098;6.596;2023-03-21T06:28:49;30.45;;;17.05;;
52858;SDS011;38721;53.098;6.596;2023-03-21T06:31:15;34.72;;;17.95;;
52858;SDS011;38721;53.098;6.596;2023-03-21T06:33:41;30.73;;;17.88;;
52858;SDS011;38721;53.098;6.596;2023-03-21T06:36:07;30.85;;;17.70;;
52858;SDS011;38721;53.098;6.596;2023-03-21T06:38:33;33.70;;;17.65;;
52858;SDS011;38721;53.098;6.596;2023-03-21T06:41:02;30.30;;;16.77;;
52858;SDS011;38721;53.098;6.596;2023-03-21T06:43:29;32.67;;;18.08;;
52858;SDS011;38721;53.098;6.596;2023-03-21T06:45:58;27.60;;;17.17;;
52858;SDS011;38721;53.098;6.596;2023-03-21T06:48:25;30.58;;;17.48;;
52858;SDS011;38721;53.098;6.596;2023-03-21T06:50:52;29.33;;;17.02;;
52858;SDS011;38721;53.098;6.596;2023-03-21T06:53:18;29.20;;;17.52;;
52858;SDS011;38721;53.098;6.596;2023-03-21T06:55:57;29.80;;;18.00;;
52858;SDS011;38721;53.098;6.596;2023-03-21T06:58:27;29.60;;;18.02;;
52858;SDS011;38721;53.098;6.596;2023-03-21T07:00:53;29.40;;;17.85;;
52858;SDS011;38721;53.098;6.596;2023-03-21T07:03:19;29.35;;;17.50;;
52858;SDS011;38721;53.098;6.596;2023-03-21T07:05:44;28.73;;;17.55;;
52858;SDS011;38721;53.098;6.596;2023-03-21T07:08:10;30.67;;;17.83;;
52858;SDS011;38721;53.098;6.596;2023-03-21T07:10:41;25.75;;;16.50;;
52858;SDS011;38721;53.098;6.596;2023-03-21T07:13:08;25.15;;;16.15;;
52858;SDS011;38721;53.098;6.596;2023-03-21T07:15:33;24.77;;;16.00;;
52858;SDS011;38721;53.098;6.596;2023-03-21T07:18:02;25.40;;;15.95;;
52858;SDS011;38721;53.098;6.596;2023-03-21T07:20:28;22.85;;;15.15;;
52858;SDS011;38721;53.098;6.596;2023-03-21T07:22:55;24.50;;;15.18;;
52858;SDS011;38721;53.098;6.596;2023-03-21T07:25:21;21.75;;;14.95;;
52858;SDS011;38721;53.098;6.596;2023-03-21T07:27:47;22.88;;;14.55;;
52858;SDS011;38721;53.098;6.596;2023-03-21T07:30:12;19.48;;;13.48;;
52858;SDS011;38721;53.098;6.596;2023-03-21T07:32:39;17.40;;;12.48;;
52858;SDS011;38721;53.098;6.596;2023-03-21T07:35:06;18.45;;;13.32;;
52858;SDS011;38721;53.098;6.596;2023-03-21T07:37:34;17.45;;;10.77;;
52858;SDS011;38721;53.098;6.596;2023-03-21T07:40:00;16.27;;;12.15;;
52858;SDS011;38721;53.098;6.596;2023-03-21T07:42:25;14.07;;;11.02;;
52858;SDS011;38721;53.098;6.596;2023-03-21T07:44:52;17.38;;;11.73;;
52858;SDS011;38721;53.098;6.596;2023-03-21T07:47:19;16.40;;;11.93;;
52858;SDS011;38721;53.098;6.596;2023-03-21T07:49:45;16.00;;;11.77;;
52858;SDS011;38721;53.098;6.596;2023-03-21T07:52:11;14.85;;;10.93;;
52858;SDS011;38721;53.098;6.596;2023-03-21T07:54:37;16.27;;;10.10;;
52858;SDS011;38721;53.098;6.596;2023-03-21T07:57:05;14.73;;;9.88;;
52858;SDS011;38721;53.098;6.596;2023-03-21T07:59:34;13.82;;;9.82;;
52858;SDS011;38721;53.098;6.596;2023-03-21T08:02:00;12.73;;;9.02;;
52858;SDS011;38721;53.098;6.596;2023-03-21T08:04:25;13.18;;;9.15;;
52858;SDS011;38721;53.098;6.596;2023-03-21T08:06:53;12.60;;;9.63;;
52858;SDS011;38721;53.098;6.596;2023-03-21T08:09:19;13.80;;;9.25;;
52858;SDS011;38721;53.098;6.596;2023-03-21T08:11:45;12.15;;;8.68;;
52858;SDS011;38721;53.098;6.596;2023-03-21T08:14:11;10.23;;;7.90;;
52858;SDS011;38721;53.098;6.596;2023-03-21T08:16:36;10.40;;;7.97;;
52858;SDS011;38721;53.098;6.596;2023-03-21T08:19:02;9.07;;;7.45;;
52858;SDS011;38721;53.098;6.596;2023-03-21T08:21:28;9.75;;;7.45;;
52858;SDS011;38721;53.098;6.596;2023-03-21T08:23:53;8.13;;;6.93;;
52858;SDS011;38721;53.098;6.596;2023-03-21T08:26:19;11.43;;;7.32;;
52858;SDS011;38721;53.098;6.596;2023-03-21T08:28:45;10.20;;;7.82;;
52858;SDS011;38721;53.098;6.596;2023-03-21T08:31:11;10.18;;;7.70;;
52858;SDS011;38721;53.098;6.596;2023-03-21T08:33:37;10.68;;;8.27;;
52858;SDS011;38721;53.098;6.596;2023-03-21T08:36:06;8.07;;;7.15;;
52858;SDS011;38721;53.098;6.596;2023-03-21T08:38:32;9.48;;;7.65;;
52858;SDS011;38721;53.098;6.596;2023-03-21T08:40:59;10.65;;;8.30;;
52858;SDS011;38721;53.098;6.596;2023-03-21T08:43:25;11.65;;;8.95;;
52858;SDS011;38721;53.098;6.596;2023-03-21T08:45:51;12.25;;;9.27;;
52858;SDS011;38721;53.098;6.596;2023-03-21T08:48:17;12.32;;;10.10;;
52858;SDS011;38721;53.098;6.596;2023-03-21T08:50:43;13.68;;;10.32;;
52858;SDS011;38721;53.098;6.596;2023-03-21T08:53:09;14.70;;;11.18;;
52858;SDS011;38721;53.098;6.596;2023-03-21T08:55:38;13.68;;;10.52;;
52858;SDS011;38721;53.098;6.596;2023-03-21T08:58:04;13.93;;;11.05;;
52858;SDS011;38721;53.098;6.596;2023-03-21T09:00:30;15.68;;;11.82;;
52858;SDS011;38721;53.098;6.596;2023-03-21T09:02:56;14.23;;;10.82;;
52858;SDS011;38721;53.098;6.596;2023-03-21T09:05:25;16.73;;;10.48;;
52858;SDS011;38721;53.098;6.596;2023-03-21T09:07:52;15.20;;;10.77;;
52858;SDS011;38721;53.098;6.596;2023-03-21T09:10:19;14.48;;;10.27;;
52858;SDS011;38721;53.098;6.596;2023-03-21T09:12:46;15.07;;;10.30;;
52858;SDS011;38721;53.098;6.596;2023-03-21T09:15:12;12.95;;;10.18;;
52858;SDS011;38721;53.098;6.596;2023-03-21T09:17:41;13.95;;;11.27;;
52858;SDS011;38721;53.098;6.596;2023-03-21T09:20:11;16.45;;;12.15;;
52858;SDS011;38721;53.098;6.596;2023-03-21T09:22:50;16.70;;;12.23;;
52858;SDS011;38721;53.098;6.596;2023-03-21T09:25:16;17.48;;;12.65;;
52858;SDS011;38721;53.098;6.596;2023-03-21T09:27:43;19.20;;;12.75;;
52858;SDS011;38721;53.098;6.596;2023-03-21T09:30:13;20.35;;;13.68;;
52858;SDS011;38721;53.098;6.596;2023-03-21T09:32:41;18.17;;;13.18;;
52858;SDS011;38721;53.098;6.596;2023-03-21T09:35:07;19.90;;;13.57;;
52858;SDS011;38721;53.098;6.596;2023-03-21T09:37:35;22.95;;;15.00;;
52858;SDS011;38721;53.098;6.596;2023-03-21T09:40:08;21.13;;;14.68;;
52858;SDS011;38721;53.098;6.596;2023-03-21T09:42:47;22.25;;;15.98;;
52858;SDS011;38721;53.098;6.596;2023-03-21T09:45:31;24.30;;;15.43;;
52858;SDS011;38721;53.098;6.596;2023-03-21T09:48:04;25.17;;;16.00;;
52858;SDS011;38721;53.098;6.596;2023-03-21T09:50:41;23.63;;;15.63;;
52858;SDS011;38721;53.098;6.596;2023-03-21T09:53:22;22.67;;;16.10;;
52858;SDS011;38721;53.098;6.596;2023-03-21T09:55:54;23.00;;;15.82;;
52858;SDS011;38721;53.098;6.596;2023-03-21T09:58:25;26.40;;;16.27;;
52858;SDS011;38721;53.098;6.596;2023-03-21T10:01:06;25.95;;;17.23;;
52858;SDS011;38721;53.098;6.596;2023-03-21T10:03:52;24.10;;;17.70;;
52858;SDS011;38721;53.098;6.596;2023-03-21T10:06:21;26.50;;;17.75;;
52858;SDS011;38721;53.098;6.596;2023-03-21T10:08:52;28.63;;;18.23;;
52858;SDS011;38721;53.098;6.596;2023-03-21T10:11:30;29.80;;;19.27;;
52858;SDS011;38721;53.098;6.596;2023-03-21T10:14:13;25.42;;;18.13;;
52858;SDS011;38721;53.098;6.596;2023-03-21T10:16:50;26.98;;;18.45;;
52858;SDS011;38721;53.098;6.596;2023-03-21T10:19:20;29.65;;;18.98;;
52858;SDS011;38721;53.098;6.596;2023-03-21T10:21:48;28.73;;;19.27;;
52858;SDS011;38721;53.098;6.596;2023-03-21T10:24:16;32.85;;;20.33;;
52858;SDS011;38721;53.098;6.596;2023-03-21T10:26:46;31.50;;;20.15;;
52858;SDS011;38721;53.098;6.596;2023-03-21T10:29:14;33.50;;;20.40;;
52858;SDS011;38721;53.098;6.596;2023-03-21T10:31:42;32.00;;;20.95;;
52858;SDS011;38721;53.098;6.596;2023-03-21T10:34:30;28.58;;;19.65;;
52858;SDS011;38721;53.098;6.596;2023-03-21T10:37:02;29.50;;;19.90;;
52858;SDS011;38721;53.098;6.596;2023-03-21T10:39:40;29.60;;;18.80;;
52858;SDS011;38721;53.098;6.596;2023-03-21T10:42:16;28.35;;;19.02;;
52858;SDS011;38721;53.098;6.596;2023-03-21T10:44:48;30.40;;;18.23;;
52858;SDS011;38721;53.098;6.596;2023-03-21T10:47:25;25.23;;;17.98;;
52858;SDS011;38721;53.098;6.596;2023-03-21T10:49:51;22.60;;;16.75;;
52858;SDS011;38721;53.098;6.596;2023-03-21T10:52:18;22.08;;;17.05;;
52858;SDS011;38721;53.098;6.596;2023-03-21T10:54:46;20.25;;;14.88;;
52858;SDS011;38721;53.098;6.596;2023-03-21T10:57:21;25.15;;;14.43;;
52858;SDS011;38721;53.098;6.596;2023-03-21T11:00:00;23.73;;;15.45;;
52858;SDS011;38721;53.098;6.596;2023-03-21T11:02:38;21.73;;;14.05;;
52858;SDS011;38721;53.098;6.596;2023-03-21T11:05:06;19.55;;;13.43;;
52858;SDS011;38721;53.098;6.596;2023-03-21T11:07:58;19.25;;;13.68;;
52858;SDS011;38721;53.098;6.596;2023-03-21T11:10:30;21.88;;;13.30;;
52858;SDS011;38721;53.098;6.596;2023-03-21T11:13:12;21.25;;;12.93;;
52858;SDS011;38721;53.098;6.596;2023-03-21T11:15:50;19.25;;;13.07;;
52858;SDS011;38721;53.098;6.596;2023-03-21T11:18:22;19.60;;;12.80;;
52858;SDS011;38721;53.098;6.596;2023-03-21T11:21:01;18.23;;;12.70;;
52858;SDS011;38721;53.098;6.596;2023-03-21T11:23:29;18.08;;;11.40;;
52858;SDS011;38721;53.098;6.596;2023-03-21T11:25:58;17.85;;;11.40;;
52858;SDS011;38721;53.098;6.596;2023-03-21T11:28:31;17.95;;;11.15;;
52858;SDS011;38721;53.098;6.596;2023-03-21T11:31:00;18.25;;;11.75;;
52858;SDS011;38721;53.098;6.596;2023-03-21T11:33:38;17.42;;;11.05;;
52858;SDS011;38721;53.098;6.596;2023-03-21T11:41:33;17.65;;;12.00;;
52858;SDS011;38721;53.098;6.596;2023-03-21T11:43:59;17.60;;;12.02;;
52858;SDS011;38721;53.098;6.596;2023-03-21T11:46:30;20.05;;;12.15;;
52858;SDS011;38721;53.098;6.596;2023-03-21T11:48:57;16.80;;;11.38;;
52858;SDS011;38721;53.098;6.596;2023-03-21T11:56:41;15.82;;;10.25;;
52858;SDS011;38721;53.098;6.596;2023-03-21T12:07:25;17.45;;;10.63;;
52858;SDS011;38721;53.098;6.596;2023-03-21T12:10:26;15.88;;;10.10;;
52858;SDS011;38721;53.098;6.596;2023-03-21T12:24:22;14.52;;;9.18;;
52858;SDS011;38721;53.098;6.596;2023-03-21T12:27:04;15.25;;;9.32;;
52858;SDS011;38721;53.098;6.596;2023-03-21T12:30:01;16.77;;;8.70;;
52858;SDS011;38721;53.098;6.596;2023-03-21T12:35:42;14.98;;;9.20;;
52858;SDS011;38721;53.098;6.596;2023-03-21T12:38:21;17.83;;;10.57;;
52858;SDS011;38721;53.098;6.596;2023-03-21T12:41:22;14.82;;;8.93;;
52858;SDS011;38721;53.098;6.596;2023-03-21T12:48:57;15.07;;;8.70;;
52858;SDS011;38721;53.098;6.596;2023-03-21T12:51:28;19.40;;;9.80;;
52858;SDS011;38721;53.098;6.596;2023-03-21T12:54:03;15.15;;;9.20;;
52858;SDS011;38721;53.098;6.596;2023-03-21T12:59:30;17.02;;;9.45;;
52858;SDS011;38721;53.098;6.596;2023-03-21T13:02:09;18.40;;;9.75;;
52858;SDS011;38721;53.098;6.596;2023-03-21T13:07:49;13.70;;;8.63;;
52858;SDS011;38721;53.098;6.596;2023-03-21T13:10:19;15.73;;;9.57;;
52858;SDS011;38721;53.098;6.596;2023-03-21T13:15:54;18.75;;;9.10;;
52858;SDS011;38721;53.098;6.596;2023-03-21T13:21:14;14.50;;;8.05;;
52858;SDS011;38721;53.098;6.596;2023-03-21T13:24:01;17.38;;;8.70;;
52858;SDS011;38721;53.098;6.596;2023-03-21T13:26:50;12.65;;;8.18;;
52858;SDS011;38721;53.098;6.596;2023-03-21T13:31:58;12.75;;;8.35;;
52858;SDS011;38721;53.098;6.596;2023-03-21T13:34:54;12.73;;;8.45;;
52858;SDS011;38721;53.098;6.596;2023-03-21T13:37:22;13.38;;;7.78;;
52858;SDS011;38721;53.098;6.596;2023-03-21T13:39:53;14.05;;;8.18;;
52858;SDS011;38721;53.098;6.596;2023-03-21T13:42:28;12.82;;;8.20;;
52858;SDS011;38721;53.098;6.596;2023-03-21T13:44:57;11.55;;;7.88;;
52858;SDS011;38721;53.098;6.596;2023-03-21T13:52:41;16.83;;;8.80;;
52858;SDS011;38721;53.098;6.596;2023-03-21T13:55:14;14.13;;;8.57;;
52858;SDS011;38721;53.098;6.596;2023-03-21T13:57:45;12.50;;;8.82;;
52858;SDS011;38721;53.098;6.596;2023-03-21T14:00:19;14.85;;;8.63;;
52858;SDS011;38721;53.098;6.596;2023-03-21T14:05:21;11.90;;;7.97;;
52858;SDS011;38721;53.098;6.596;2023-03-21T14:07:50;12.00;;;8.20;;
52858;SDS011;38721;53.098;6.596;2023-03-21T14:10:32;15.15;;;8.73;;
52858;SDS011;38721;53.098;6.596;2023-03-21T14:13:02;14.40;;;8.45;;
52858;SDS011;38721;53.098;6.596;2023-03-21T14:15:41;12.68;;;8.23;;
52858;SDS011;38721;53.098;6.596;2023-03-21T14:18:14;15.05;;;7.85;;
52858;SDS011;38721;53.098;6.596;2023-03-21T14:20:50;11.48;;;8.05;;
52858;SDS011;38721;53.098;6.596;2023-03-21T14:23:18;11.82;;;8.48;;
52858;SDS011;38721;53.098;6.596;2023-03-21T14:25:47;11.57;;;7.68;;
52858;SDS011;38721;53.098;6.596;2023-03-21T14:28:56;13.82;;;8.07;;
52858;SDS011;38721;53.098;6.596;2023-03-21T14:31:03;12.70;;;8.50;;
52858;SDS011;38721;53.098;6.596;2023-03-21T14:33:37;11.32;;;7.95;;
52858;SDS011;38721;53.098;6.596;2023-03-21T14:36:06;11.15;;;8.15;;
52858;SDS011;38721;53.098;6.596;2023-03-21T14:38:37;14.10;;;8.57;;
52858;SDS011;38721;53.098;6.596;2023-03-21T14:41:04;11.57;;;7.45;;
52858;SDS011;38721;53.098;6.596;2023-03-21T14:43:33;15.32;;;9.02;;
52858;SDS011;38721;53.098;6.596;2023-03-21T14:45:59;12.38;;;8.65;;
52858;SDS011;38721;53.098;6.596;2023-03-21T14:48:32;11.52;;;8.15;;
52858;SDS011;38721;53.098;6.596;2023-03-21T14:51:02;16.88;;;8.73;;
52858;SDS011;38721;53.098;6.596;2023-03-21T14:53:34;12.35;;;8.48;;
52858;SDS011;38721;53.098;6.596;2023-03-21T14:56:05;14.10;;;8.95;;
52858;SDS011;38721;53.098;6.596;2023-03-21T14:58:52;11.50;;;8.55;;
52858;SDS011;38721;53.098;6.596;2023-03-21T15:01:29;13.00;;;8.80;;
52858;SDS011;38721;53.098;6.596;2023-03-21T15:03:58;14.05;;;9.30;;
52858;SDS011;38721;53.098;6.596;2023-03-21T15:06:28;13.40;;;8.38;;
52858;SDS011;38721;53.098;6.596;2023-03-21T15:08:55;11.70;;;8.63;;
52858;SDS011;38721;53.098;6.596;2023-03-21T15:11:33;12.60;;;8.23;;
52858;SDS011;38721;53.098;6.596;2023-03-21T15:14:02;13.93;;;8.68;;
52858;SDS011;38721;53.098;6.596;2023-03-21T15:16:31;10.23;;;8.90;;
52858;SDS011;38721;53.098;6.596;2023-03-21T15:18:58;13.20;;;8.60;;
52858;SDS011;38721;53.098;6.596;2023-03-21T15:21:30;15.38;;;9.20;;
52858;SDS011;38721;53.098;6.596;2023-03-21T15:24:49;14.27;;;8.82;;
52858;SDS011;38721;53.098;6.596;2023-03-21T15:27:06;13.30;;;9.32;;
52858;SDS011;38721;53.098;6.596;2023-03-21T15:29:37;14.50;;;9.02;;
52858;SDS011;38721;53.098;6.596;2023-03-21T15:32:06;14.50;;;9.38;;
52858;SDS011;38721;53.098;6.596;2023-03-21T15:34:38;12.40;;;8.70;;
52858;SDS011;38721;53.098;6.596;2023-03-21T15:37:05;18.02;;;9.90;;
52858;SDS011;38721;53.098;6.596;2023-03-21T15:39:34;15.80;;;8.40;;
52858;SDS011;38721;53.098;6.596;2023-03-21T15:42:02;12.80;;;9.05;;
52858;SDS011;38721;53.098;6.596;2023-03-21T15:44:32;14.52;;;9.38;;
52858;SDS011;38721;53.098;6.596;2023-03-21T15:46:59;13.20;;;9.10;;
52858;SDS011;38721;53.098;6.596;2023-03-21T15:51:55;12.38;;;9.18;;
52858;SDS011;38721;53.098;6.596;2023-03-21T15:54:32;13.82;;;8.85;;
52858;SDS011;38721;53.098;6.596;2023-03-21T15:57:29;16.27;;;9.27;;
52858;SDS011;38721;53.098;6.596;2023-03-21T16:00:08;14.45;;;9.57;;
52858;SDS011;38721;53.098;6.596;2023-03-21T16:02:43;14.23;;;9.43;;
52858;SDS011;38721;53.098;6.596;2023-03-21T16:07:50;15.45;;;9.90;;
52858;SDS011;38721;53.098;6.596;2023-03-21T16:10:35;14.25;;;10.15;;
52858;SDS011;38721;53.098;6.596;2023-03-21T16:13:02;15.00;;;9.98;;
52858;SDS011;38721;53.098;6.596;2023-03-21T16:15:29;18.35;;;10.00;;
52858;SDS011;38721;53.098;6.596;2023-03-21T16:17:56;15.15;;;10.35;;